createdAt,value
2018-01-01T00:00:56.384Z,98662
2018-01-01T00:01:56.482Z,98656
2018-01-01T00:02:57.533Z,98664
2018-01-01T00:03:56.545Z,98659
2018-01-01T00:04:57.461Z,98656
2018-01-01T00:05:56.527Z,98653
2018-01-01T00:06:56.618Z,98658
2018-01-01T00:07:57.784Z,98668
2018-01-01T00:08:56.784Z,98662
2018-01-01T00:09:56.855Z,98675
2018-01-01T00:10:56.903Z,98668
2018-01-01T00:11:57.025Z,98671
2018-01-01T00:12:57.103Z,98671
2018-01-01T00:13:57.051Z,98661
2018-01-01T00:14:58.048Z,98670
2018-01-01T00:15:58.162Z,98677
2018-01-01T00:16:57.242Z,98675
2018-01-01T00:17:57.171Z,98679
2018-01-01T00:18:57.214Z,98677
2018-01-01T00:19:57.366Z,98681
2018-01-01T00:20:58.284Z,98687
2018-01-01T00:21:57.493Z,98683
2018-01-01T00:22:57.443Z,98684
2018-01-01T00:23:57.558Z,98690
2018-01-01T00:24:58.565Z,98694
2018-01-01T00:25:57.629Z,98701
2018-01-01T00:26:58.599Z,98688
2018-01-01T00:27:58.667Z,98683
2018-01-01T00:28:58.598Z,98691
2018-01-01T00:29:57.759Z,98700
2018-01-01T00:30:58.604Z,98702
2018-01-01T00:31:57.778Z,98697
2018-01-01T00:32:57.802Z,98697
2018-01-01T00:33:57.900Z,98668
2018-01-01T00:34:58.844Z,98686
2018-01-01T00:35:58.882Z,98690
2018-01-01T00:36:58.886Z,98688
2018-01-01T00:37:57.991Z,98693
2018-01-01T00:38:59.084Z,98701
2018-01-01T00:39:58.178Z,98709
2018-01-01T00:40:59.190Z,98699
2018-01-01T00:41:58.201Z,98696
2018-01-01T00:42:58.208Z,98697
2018-01-01T00:43:58.232Z,98704
2018-01-01T00:44:59.337Z,98700
2018-01-01T00:45:59.383Z,98702
2018-01-01T00:46:58.440Z,98715
2018-01-01T00:47:58.420Z,98715
2018-01-01T00:48:59.545Z,98706
2018-01-01T00:49:59.525Z,98707
2018-01-01T00:50:58.767Z,98686
2018-01-01T00:51:59.782Z,98691
2018-01-01T00:52:58.716Z,98687
2018-01-01T00:53:59.798Z,98685
2018-01-01T00:54:58.854Z,98689
2018-01-01T00:55:58.776Z,98680
2018-01-01T00:56:58.799Z,98680
2018-01-01T00:57:58.922Z,98658
2018-01-01T00:58:58.857Z,98666
2018-01-01T00:59:58.866Z,98660
2018-01-01T01:00:58.860Z,98668
2018-01-01T01:01:58.984Z,98666
2018-01-01T01:03:00.018Z,98670
2018-01-01T01:03:59.094Z,98665
2018-01-01T01:04:59.954Z,98666
2018-01-01T01:05:59.060Z,98667
2018-01-01T01:06:59.230Z,98665
2018-01-01T01:07:59.251Z,98672
2018-01-01T01:08:59.382Z,98665
2018-01-01T01:09:59.300Z,98678
2018-01-01T01:11:00.392Z,98664
2018-01-01T01:11:59.309Z,98682
2018-01-01T01:12:59.458Z,98671
2018-01-01T01:13:59.510Z,98682
2018-01-01T01:14:59.469Z,98688
2018-01-01T01:15:59.594Z,98688
2018-01-01T01:16:59.716Z,98691
2018-01-01T01:18:00.727Z,98686
2018-01-01T01:19:00.787Z,98693
2018-01-01T01:19:59.775Z,98696
2018-01-01T01:20:59.775Z,98698
2018-01-01T01:22:00.961Z,98693
2018-01-01T01:23:00.911Z,98694
2018-01-01T01:24:01.092Z,98690
2018-01-01T01:25:00.143Z,98692
2018-01-01T01:26:00.065Z,98697
2018-01-01T01:27:00.079Z,98700
2018-01-01T01:28:00.154Z,98695
2018-01-01T01:29:00.191Z,98688
2018-01-01T01:30:00.318Z,98690
2018-01-01T01:31:00.253Z,98685
2018-01-01T01:32:01.330Z,98698
2018-01-01T01:33:01.412Z,98700
2018-01-01T01:34:00.429Z,98700
2018-01-01T01:35:00.432Z,98686
2018-01-01T01:36:00.503Z,98691
2018-01-01T01:37:01.658Z,98700
2018-01-01T01:38:01.747Z,98704
2018-01-01T01:39:00.783Z,98696
2018-01-01T01:40:00.887Z,98704
2018-01-01T01:41:00.843Z,98697
2018-01-01T01:42:00.970Z,98711
2018-01-01T01:43:00.928Z,98700
2018-01-01T01:44:00.979Z,98705
2018-01-01T01:45:01.978Z,98710
2018-01-01T01:46:01.059Z,98715
2018-01-01T01:47:01.104Z,98722
2018-01-01T01:48:01.233Z,98714
2018-01-01T01:49:01.238Z,98721
2018-01-01T01:50:01.198Z,98711
2018-01-01T01:51:01.271Z,98712
2018-01-01T01:52:01.318Z,98708
2018-01-01T01:53:01.384Z,98699
2018-01-01T01:54:01.452Z,98706
2018-01-01T01:55:01.479Z,98707
2018-01-01T01:56:01.511Z,98697
2018-01-01T01:57:01.538Z,98706
2018-01-01T01:58:02.675Z,98701
2018-01-01T01:59:02.606Z,98713
2018-01-01T02:00:01.660Z,98718
2018-01-01T02:01:01.851Z,98708
2018-01-01T02:02:02.842Z,98709
2018-01-01T02:03:02.878Z,98704
2018-01-01T02:04:02.910Z,98713
2018-01-01T02:05:02.996Z,98718
2018-01-01T02:06:02.084Z,98716
2018-01-01T02:07:02.011Z,98711
2018-01-01T02:08:02.070Z,98702
2018-01-01T02:09:02.133Z,98708
2018-01-01T02:10:02.260Z,98712
2018-01-01T02:11:02.425Z,98725
2018-01-01T02:12:02.378Z,98700
2018-01-01T02:13:02.437Z,98719
2018-01-01T02:14:03.571Z,98719
2018-01-01T02:15:02.733Z,98718
2018-01-01T02:16:03.697Z,98707
2018-01-01T02:17:02.632Z,98711
2018-01-01T02:18:02.621Z,98742
2018-01-01T02:19:03.723Z,98729
2018-01-01T02:20:02.680Z,98726
2018-01-01T02:21:03.853Z,98720
2018-01-01T02:22:03.865Z,98726
2018-01-01T02:23:02.882Z,98714
2018-01-01T02:24:03.012Z,98728
2018-01-01T02:25:03.080Z,98724
2018-01-01T02:26:02.999Z,98731
2018-01-01T02:27:04.104Z,98728
2018-01-01T02:28:03.041Z,98730
2018-01-01T02:29:03.009Z,98733
2018-01-01T02:30:03.067Z,98705
2018-01-01T02:31:04.148Z,98723
2018-01-01T02:32:03.142Z,98707
2018-01-01T02:33:04.253Z,98716
2018-01-01T02:34:04.167Z,98724
2018-01-01T02:35:04.175Z,98714
2018-01-01T02:36:04.348Z,98716
2018-01-01T02:37:03.441Z,98713
2018-01-01T02:38:03.465Z,98716
2018-01-01T02:39:04.362Z,98711
2018-01-01T02:40:04.470Z,98712
2018-01-01T02:41:03.667Z,98714
2018-01-01T02:42:03.556Z,98713
2018-01-01T02:43:03.698Z,98716
2018-01-01T02:44:03.734Z,98716
2018-01-01T02:45:04.790Z,98726
2018-01-01T02:46:03.872Z,98720
2018-01-01T02:47:04.858Z,98720
2018-01-01T02:48:04.869Z,98713
2018-01-01T02:49:03.800Z,98719
2018-01-01T02:50:03.823Z,98727
2018-01-01T02:51:04.993Z,98711
2018-01-01T02:52:04.977Z,98721
2018-01-01T02:53:04.079Z,98724
2018-01-01T02:54:04.965Z,98714
2018-01-01T02:55:05.088Z,98724
2018-01-01T02:56:05.182Z,98728
2018-01-01T02:57:04.165Z,98725
2018-01-01T02:58:04.257Z,98729
2018-01-01T02:59:05.293Z,98719
2018-01-01T03:00:04.363Z,98743
2018-01-01T03:01:04.543Z,98725
2018-01-01T03:02:05.537Z,98727
2018-01-01T03:03:04.613Z,98731
2018-01-01T03:04:04.692Z,98735
2018-01-01T03:05:05.527Z,98726
2018-01-01T03:06:04.745Z,98733
2018-01-01T03:07:05.739Z,98731
2018-01-01T03:08:04.881Z,98727
2018-01-01T03:09:05.868Z,98731
2018-01-01T03:10:05.842Z,98729
2018-01-01T03:11:04.817Z,98731
2018-01-01T03:12:05.013Z,98730
2018-01-01T03:13:06.056Z,98716
2018-01-01T03:14:04.972Z,98729
2018-01-01T03:15:05.108Z,98720
2018-01-01T03:16:05.996Z,98724
2018-01-01T03:17:05.168Z,98731
2018-01-01T03:18:06.190Z,98725
2018-01-01T03:19:06.254Z,98737
2018-01-01T03:20:06.169Z,98731
2018-01-01T03:21:05.203Z,98712
2018-01-01T03:22:05.233Z,98716
2018-01-01T03:23:06.203Z,98683
2018-01-01T03:24:05.276Z,98711
2018-01-01T03:25:05.304Z,98724
2018-01-01T03:26:05.444Z,98725
2018-01-01T03:27:05.520Z,98728
2018-01-01T03:28:05.484Z,98719
2018-01-01T03:29:05.601Z,98712
2018-01-01T03:30:05.542Z,98732
2018-01-01T03:31:05.600Z,98734
2018-01-01T03:32:06.618Z,98719
2018-01-01T03:33:05.814Z,98731
2018-01-01T03:34:05.828Z,98728
2018-01-01T03:35:05.897Z,98719
2018-01-01T03:36:05.919Z,98725
2018-01-01T03:37:07.102Z,98712
2018-01-01T03:38:06.092Z,98731
2018-01-01T03:39:07.102Z,98718
2018-01-01T03:40:07.253Z,98729
2018-01-01T03:41:07.214Z,98709
2018-01-01T03:42:06.404Z,98721
2018-01-01T03:43:07.288Z,98726
2018-01-01T03:44:06.423Z,98720
2018-01-01T03:45:06.494Z,98727
2018-01-01T03:46:07.540Z,98717
2018-01-01T03:47:06.650Z,98705
2018-01-01T03:48:06.645Z,98714
2018-01-01T03:49:06.655Z,98720
2018-01-01T03:50:07.706Z,98727
2018-01-01T03:51:07.872Z,98706
2018-01-01T03:52:06.908Z,98715
2018-01-01T03:53:07.003Z,98715
2018-01-01T03:54:06.934Z,98723
2018-01-01T03:55:07.928Z,98721
2018-01-01T03:56:07.935Z,98725
2018-01-01T03:57:08.081Z,98733
2018-01-01T03:58:07.113Z,98738
2018-01-01T03:59:07.200Z,98740
2018-01-01T04:00:08.386Z,98737
2018-01-01T04:01:08.642Z,98734
2018-01-01T04:02:07.511Z,98745
2018-01-01T04:03:07.466Z,98729
2018-01-01T04:04:07.522Z,98729
2018-01-01T04:05:07.611Z,98727
2018-01-01T04:06:07.634Z,98732
2018-01-01T04:07:08.785Z,98732
2018-01-01T04:08:07.785Z,98739
2018-01-01T04:09:07.824Z,98730
2018-01-01T04:10:07.881Z,98736
2018-01-01T04:11:08.076Z,98737
2018-01-01T04:12:08.044Z,98742
2018-01-01T04:13:07.987Z,98737
2018-01-01T04:14:08.990Z,98745
2018-01-01T04:15:09.171Z,98761
2018-01-01T04:16:08.212Z,98765
2018-01-01T04:17:08.284Z,98756
2018-01-01T04:18:08.216Z,98773
2018-01-01T04:19:08.349Z,98773
2018-01-01T04:20:09.323Z,98784
2018-01-01T04:21:08.444Z,98765
2018-01-01T04:22:09.471Z,98767
2018-01-01T04:23:09.457Z,98770
2018-01-01T04:24:08.581Z,98781
2018-01-01T04:25:08.585Z,98774
2018-01-01T04:26:08.659Z,98786
2018-01-01T04:27:08.660Z,98779
2018-01-01T04:28:09.763Z,98793
2018-01-01T04:29:09.810Z,98790
2018-01-01T04:30:09.803Z,98794
2018-01-01T04:31:08.824Z,98793
2018-01-01T04:32:08.901Z,98791
2018-01-01T04:33:09.001Z,98785
2018-01-01T04:34:09.119Z,98786
2018-01-01T04:35:09.153Z,98791
2018-01-01T04:36:10.202Z,98798
2018-01-01T04:37:09.181Z,98790
2018-01-01T04:38:10.244Z,98800
2018-01-01T04:39:09.376Z,98792
2018-01-01T04:40:09.431Z,98803
2018-01-01T04:41:09.499Z,98796
2018-01-01T04:42:10.611Z,98798
2018-01-01T04:43:10.522Z,98802
2018-01-01T04:44:10.681Z,98807
2018-01-01T04:45:09.728Z,98810
2018-01-01T04:46:09.738Z,98809
2018-01-01T04:47:09.744Z,98806
2018-01-01T04:48:09.717Z,98809
2018-01-01T04:49:10.809Z,98812
2018-01-01T04:50:10.734Z,98821
2018-01-01T04:51:10.910Z,98810
2018-01-01T04:52:09.860Z,98822
2018-01-01T04:53:09.974Z,98820
2018-01-01T04:54:09.890Z,98817
2018-01-01T04:55:10.919Z,98822
2018-01-01T04:56:10.145Z,98817
2018-01-01T04:57:11.194Z,98808
2018-01-01T04:58:11.120Z,98824
2018-01-01T04:59:11.142Z,98812
2018-01-01T05:00:11.174Z,98822
2018-01-01T05:01:11.314Z,98815
2018-01-01T05:02:11.217Z,98822
2018-01-01T05:03:11.294Z,98820
2018-01-01T05:04:10.403Z,98826
2018-01-01T05:05:10.528Z,98830
2018-01-01T05:06:10.472Z,98813
2018-01-01T05:07:11.587Z,98832
2018-01-01T05:08:10.561Z,98833
2018-01-01T05:09:11.633Z,98832
2018-01-01T05:10:10.763Z,98835
2018-01-01T05:11:11.703Z,98839
2018-01-01T05:12:11.747Z,98838
2018-01-01T05:13:11.920Z,98856
2018-01-01T05:14:10.859Z,98847
2018-01-01T05:15:11.021Z,98853
2018-01-01T05:16:11.944Z,98856
2018-01-01T05:17:10.978Z,98855
2018-01-01T05:18:11.056Z,98863
2018-01-01T05:19:11.209Z,98862
2018-01-01T05:20:11.263Z,98855
2018-01-01T05:21:12.267Z,98862
2018-01-01T05:22:12.251Z,98866
2018-01-01T05:23:11.325Z,98870
2018-01-01T05:24:11.398Z,98883
2018-01-01T05:25:11.427Z,98876
2018-01-01T05:26:11.522Z,98872
2018-01-01T05:27:12.566Z,98880
2018-01-01T05:28:12.617Z,98874
2018-01-01T05:29:12.647Z,98873
2018-01-01T05:30:11.833Z,98867
2018-01-01T05:31:12.814Z,98873
2018-01-01T05:32:12.739Z,98877
2018-01-01T05:33:12.941Z,98876
2018-01-01T05:34:12.987Z,98880
2018-01-01T05:35:11.980Z,98874
2018-01-01T05:36:12.079Z,98882
2018-01-01T05:37:12.058Z,98883
2018-01-01T05:38:12.187Z,98892
2018-01-01T05:39:12.178Z,98890
2018-01-01T05:40:12.232Z,98890
2018-01-01T05:41:12.311Z,98883
2018-01-01T05:42:12.418Z,98894
2018-01-01T05:43:12.404Z,98904
2018-01-01T05:44:13.382Z,98903
2018-01-01T05:45:13.434Z,98891
2018-01-01T05:46:12.480Z,98899
2018-01-01T05:47:12.591Z,98903
2018-01-01T05:48:12.670Z,98900
2018-01-01T05:49:12.661Z,98898
2018-01-01T05:50:12.739Z,98900
2018-01-01T05:51:12.827Z,98899
2018-01-01T05:52:13.006Z,98903
2018-01-01T05:53:13.058Z,98904
2018-01-01T05:54:14.124Z,98912
2018-01-01T05:55:14.009Z,98909
2018-01-01T05:56:14.157Z,98899
2018-01-01T05:57:14.218Z,98907
2018-01-01T05:58:13.253Z,98904
2018-01-01T05:59:13.184Z,98914
2018-01-01T06:00:14.324Z,98910
2018-01-01T06:01:14.390Z,98910
2018-01-01T06:02:13.359Z,98908
2018-01-01T06:03:13.489Z,98916
2018-01-01T06:04:14.548Z,98912
2018-01-01T06:05:13.518Z,98927
2018-01-01T06:06:13.629Z,98917
2018-01-01T06:07:13.674Z,98921
2018-01-01T06:08:13.745Z,98915
2018-01-01T06:09:13.861Z,98926
2018-01-01T06:10:13.920Z,98910
2018-01-01T06:11:13.987Z,98931
2018-01-01T06:12:15.066Z,98925
2018-01-01T06:13:14.175Z,98919
2018-01-01T06:14:14.190Z,98922
2018-01-01T06:15:14.256Z,98919
2018-01-01T06:16:15.340Z,98929
2018-01-01T06:17:15.401Z,98914
2018-01-01T06:18:15.439Z,98929
2018-01-01T06:19:15.437Z,98936
2018-01-01T06:20:14.627Z,98940
2018-01-01T06:21:14.675Z,98946
2018-01-01T06:22:14.592Z,98936
2018-01-01T06:23:14.617Z,98942
2018-01-01T06:24:14.645Z,98930
2018-01-01T06:25:14.812Z,98932
2018-01-01T06:26:14.774Z,98924
2018-01-01T06:27:15.902Z,98932
2018-01-01T06:28:16.004Z,98944
2018-01-01T06:29:15.109Z,98945
2018-01-01T06:30:15.077Z,98948
2018-01-01T06:31:15.123Z,98944
2018-01-01T06:32:15.116Z,98958
2018-01-01T06:33:16.141Z,98948
2018-01-01T06:34:15.355Z,98962
2018-01-01T06:35:15.306Z,98965
2018-01-01T06:36:15.504Z,98955
2018-01-01T06:37:16.555Z,98967
2018-01-01T06:38:16.562Z,98975
2018-01-01T06:39:15.647Z,98974
2018-01-01T06:40:16.630Z,98990
2018-01-01T06:41:15.580Z,98977
2018-01-01T06:42:15.760Z,98953
2018-01-01T06:43:15.802Z,98981
2018-01-01T06:44:16.753Z,98985
2018-01-01T06:45:15.857Z,98966
2018-01-01T06:46:16.979Z,98979
2018-01-01T06:47:16.031Z,98980
2018-01-01T06:48:16.047Z,98981
2018-01-01T06:49:17.147Z,98963
2018-01-01T06:50:17.212Z,98983
2018-01-01T06:51:17.137Z,98988
2018-01-01T06:52:17.268Z,99001
2018-01-01T06:53:16.370Z,98998
2018-01-01T06:54:16.403Z,98993
2018-01-01T06:55:17.395Z,98992
2018-01-01T06:56:16.483Z,98999
2018-01-01T06:57:16.582Z,99000
2018-01-01T06:58:17.624Z,99002
2018-01-01T06:59:17.701Z,99009
2018-01-01T07:00:16.836Z,98996
2018-01-01T07:01:17.789Z,99006
2018-01-01T07:02:17.923Z,98994
2018-01-01T07:03:17.896Z,99009
2018-01-01T07:04:18.108Z,99000
2018-01-01T07:05:18.111Z,98999
2018-01-01T07:06:17.137Z,99005
2018-01-01T07:07:17.163Z,99002
2018-01-01T07:08:17.239Z,99016
2018-01-01T07:09:17.245Z,99010
2018-01-01T07:10:17.342Z,99004
2018-01-01T07:11:18.377Z,98996
2018-01-01T07:12:17.356Z,99000
2018-01-01T07:13:17.476Z,98995
2018-01-01T07:14:18.544Z,99000
2018-01-01T07:15:17.575Z,99000
2018-01-01T07:16:17.746Z,99003
2018-01-01T07:17:17.842Z,99006
2018-01-01T07:18:17.770Z,99012
2018-01-01T07:19:17.806Z,98998
2018-01-01T07:20:17.867Z,99015
2018-01-01T07:21:19.038Z,99018
2018-01-01T07:22:18.077Z,99012
2018-01-01T07:23:19.076Z,99020
2018-01-01T07:24:18.045Z,99027
2018-01-01T07:25:18.082Z,99023
2018-01-01T07:26:18.189Z,99023
2018-01-01T07:27:18.161Z,99026
2018-01-01T07:28:19.279Z,99017
2018-01-01T07:29:18.340Z,99029
2018-01-01T07:30:18.302Z,99034
2018-01-01T07:31:18.404Z,99037
2018-01-01T07:32:18.404Z,99043
2018-01-01T07:33:18.589Z,99038
2018-01-01T07:34:18.516Z,99044
2018-01-01T07:35:18.719Z,99038
2018-01-01T07:36:18.630Z,99048
2018-01-01T07:37:19.709Z,99036
2018-01-01T07:38:19.806Z,99039
2018-01-01T07:39:18.908Z,99028
2018-01-01T07:40:19.921Z,99040
2018-01-01T07:41:18.843Z,99033
2018-01-01T07:42:20.016Z,99042
2018-01-01T07:43:19.105Z,99041
2018-01-01T07:44:19.076Z,99042
2018-01-01T07:45:19.083Z,99048
2018-01-01T07:46:20.169Z,99042
2018-01-01T07:47:20.180Z,99053
2018-01-01T07:48:19.175Z,99044
2018-01-01T07:49:20.365Z,99049
2018-01-01T07:50:19.324Z,99034
2018-01-01T07:51:19.344Z,99042
2018-01-01T07:52:19.540Z,99046
2018-01-01T07:53:19.522Z,99040
2018-01-01T07:54:19.595Z,99049
2018-01-01T07:55:19.690Z,99048
2018-01-01T07:56:19.592Z,99041
2018-01-01T07:57:19.629Z,99044
2018-01-01T07:58:19.662Z,99049
2018-01-01T07:59:19.799Z,99048
2018-01-01T08:00:20.724Z,99035
2018-01-01T08:01:19.799Z,99040
2018-01-01T08:02:20.009Z,99039
2018-01-01T08:03:20.123Z,99049
2018-01-01T08:04:20.008Z,99041
2018-01-01T08:05:21.163Z,99044
2018-01-01T08:06:20.160Z,99031
2018-01-01T08:07:20.255Z,99043
2018-01-01T08:08:20.308Z,99053
2018-01-01T08:09:20.302Z,99050
2018-01-01T08:10:21.322Z,99044
2018-01-01T08:11:21.336Z,99050
2018-01-01T08:12:21.542Z,99045
2018-01-01T08:13:20.541Z,99049
2018-01-01T08:14:21.650Z,99045
2018-01-01T08:15:21.642Z,99043
2018-01-01T08:16:20.838Z,99037
2018-01-01T08:17:21.866Z,99044
2018-01-01T08:18:20.791Z,99036
2018-01-01T08:19:21.925Z,99049
2018-01-01T08:20:20.896Z,99056
2018-01-01T08:21:21.053Z,99055
2018-01-01T08:22:21.030Z,99046
2018-01-01T08:23:22.026Z,99048
2018-01-01T08:24:21.082Z,99045
2018-01-01T08:25:22.159Z,99058
2018-01-01T08:26:21.379Z,99050
2018-01-01T08:27:22.429Z,99054
2018-01-01T08:28:21.523Z,99052
2018-01-01T08:29:21.517Z,99046
2018-01-01T08:30:22.486Z,99040
2018-01-01T08:31:21.624Z,99044
2018-01-01T08:32:21.543Z,99048
2018-01-01T08:33:21.602Z,99048
2018-01-01T08:34:21.701Z,99047
2018-01-01T08:35:21.772Z,99044
2018-01-01T08:36:22.707Z,99054
2018-01-01T08:37:21.787Z,99051
2018-01-01T08:38:21.850Z,99041
2018-01-01T08:39:22.853Z,99054
2018-01-01T08:40:21.908Z,99043
2018-01-01T08:41:22.982Z,99055
2018-01-01T08:42:21.927Z,99047
2018-01-01T08:43:23.041Z,99051
2018-01-01T08:44:23.051Z,99060
2018-01-01T08:45:23.099Z,99061
2018-01-01T08:46:22.229Z,99063
2018-01-01T08:47:23.272Z,99066
2018-01-01T08:48:22.340Z,99062
2018-01-01T08:49:23.366Z,99054
2018-01-01T08:50:23.457Z,99059
2018-01-01T08:51:23.368Z,99056
2018-01-01T08:52:23.503Z,99064
2018-01-01T08:53:22.584Z,99049
2018-01-01T08:54:22.606Z,99057
2018-01-01T08:55:22.682Z,99035
2018-01-01T08:56:22.684Z,99048
2018-01-01T08:57:23.735Z,99055
2018-01-01T08:58:22.839Z,99061
2018-01-01T08:59:23.833Z,99062
2018-01-01T09:00:23.967Z,99054
2018-01-01T09:01:23.963Z,99057
2018-01-01T09:02:23.065Z,99053
2018-01-01T09:03:23.049Z,99064
2018-01-01T09:04:23.131Z,99059
2018-01-01T09:05:23.170Z,99056
2018-01-01T09:06:24.214Z,99059
2018-01-01T09:07:23.264Z,99064
2018-01-01T09:08:23.293Z,99065
2018-01-01T09:09:24.369Z,99062
2018-01-01T09:10:24.260Z,99058
2018-01-01T09:11:24.380Z,99058
2018-01-01T09:12:24.459Z,99066
2018-01-01T09:13:23.530Z,99061
2018-01-01T09:14:23.438Z,99054
2018-01-01T09:15:23.624Z,99062
2018-01-01T09:16:23.617Z,99061
2018-01-01T09:17:24.738Z,99066
2018-01-01T09:18:23.685Z,99069
2018-01-01T09:19:24.786Z,99065
2018-01-01T09:20:23.845Z,99068
2018-01-01T09:21:23.870Z,99054
2018-01-01T09:22:23.822Z,99072
2018-01-01T09:23:23.891Z,99075
2018-01-01T09:24:25.046Z,99067
2018-01-01T09:25:24.134Z,99078
2018-01-01T09:26:24.221Z,99071
2018-01-01T09:27:24.215Z,99083
2018-01-01T09:28:24.310Z,99067
2018-01-01T09:29:24.411Z,99080
2018-01-01T09:30:25.307Z,99085
2018-01-01T09:31:25.512Z,99078
2018-01-01T09:32:24.443Z,99084
2018-01-01T09:33:24.623Z,99074
2018-01-01T09:34:25.663Z,99074
2018-01-01T09:35:25.720Z,99076
2018-01-01T09:36:25.598Z,99082
2018-01-01T09:37:24.816Z,99088
2018-01-01T09:38:24.777Z,99075
2018-01-01T09:39:25.898Z,99080
2018-01-01T09:40:25.913Z,99076
2018-01-01T09:41:26.018Z,99075
2018-01-01T09:42:26.015Z,99081
2018-01-01T09:43:26.065Z,99074
2018-01-01T09:44:25.148Z,99074
2018-01-01T09:45:25.236Z,99078
2018-01-01T09:46:25.210Z,99077
2018-01-01T09:47:25.248Z,99058
2018-01-01T09:48:25.387Z,99077
2018-01-01T09:49:25.396Z,99066
2018-01-01T09:50:25.475Z,99075
2018-01-01T09:51:25.470Z,99081
2018-01-01T09:52:25.524Z,99072
2018-01-01T09:53:25.568Z,99067
2018-01-01T09:54:25.603Z,99072
2018-01-01T09:55:26.653Z,99067
2018-01-01T09:56:25.788Z,99073
2018-01-01T09:57:25.942Z,99053
2018-01-01T09:58:25.912Z,99071
2018-01-01T09:59:27.067Z,99061
2018-01-01T10:00:26.161Z,99059
2018-01-01T10:01:27.105Z,99060
2018-01-01T10:02:27.136Z,99061
2018-01-01T10:03:27.320Z,99062
2018-01-01T10:04:26.392Z,99052
2018-01-01T10:05:26.404Z,99052
2018-01-01T10:06:26.447Z,99057
2018-01-01T10:07:26.414Z,99050
2018-01-01T10:08:27.460Z,99056
2018-01-01T10:09:26.524Z,99055
2018-01-01T10:10:26.575Z,99058
2018-01-01T10:11:27.715Z,99055
2018-01-01T10:12:26.813Z,99050
2018-01-01T10:13:27.780Z,99043
2018-01-01T10:14:27.954Z,99033
2018-01-01T10:15:27.865Z,99035
2018-01-01T10:16:27.002Z,99037
2018-01-01T10:17:27.914Z,99030
2018-01-01T10:18:27.958Z,99037
2018-01-01T10:19:28.126Z,99030
2018-01-01T10:20:27.226Z,99036
2018-01-01T10:21:27.183Z,99029
2018-01-01T10:22:28.312Z,99040
2018-01-01T10:23:27.407Z,99045
2018-01-01T10:24:28.368Z,99041
2018-01-01T10:25:27.384Z,99036
2018-01-01T10:26:27.395Z,99032
2018-01-01T10:27:27.406Z,99028
2018-01-01T10:28:28.426Z,99017
2018-01-01T10:29:27.478Z,99040
2018-01-01T10:30:27.405Z,99032
2018-01-01T10:31:27.540Z,99038
2018-01-01T10:32:27.472Z,99043
2018-01-01T10:33:27.532Z,99049
2018-01-01T10:34:27.552Z,99046
2018-01-01T10:35:27.637Z,99039
2018-01-01T10:36:27.619Z,99037
2018-01-01T10:37:27.673Z,99047
2018-01-01T10:38:27.804Z,99044
2018-01-01T10:39:28.852Z,99040
2018-01-01T10:40:27.791Z,99034
2018-01-01T10:41:27.883Z,99045
2018-01-01T10:42:28.060Z,99036
2018-01-01T10:43:28.112Z,99031
2018-01-01T10:44:28.161Z,99031
2018-01-01T10:45:29.196Z,99030
2018-01-01T10:46:28.274Z,99025
2018-01-01T10:47:28.329Z,99030
2018-01-01T10:48:28.423Z,99032
2018-01-01T10:49:28.503Z,99025
2018-01-01T10:50:28.441Z,99035
2018-01-01T10:51:29.439Z,99027
2018-01-01T10:52:28.541Z,99034
2018-01-01T10:53:28.555Z,99025
2018-01-01T10:54:29.580Z,99018
2018-01-01T10:55:28.659Z,99014
2018-01-01T10:56:28.794Z,99012
2018-01-01T10:57:28.853Z,99014
2018-01-01T10:58:28.937Z,99015
2018-01-01T10:59:29.810Z,99015
2018-01-01T11:00:28.880Z,99012
2018-01-01T11:01:28.936Z,99013
2018-01-01T11:02:29.974Z,99015
2018-01-01T11:03:29.050Z,99010
2018-01-01T11:04:29.088Z,99005
2018-01-01T11:05:30.194Z,99004
2018-01-01T11:06:30.078Z,99006
2018-01-01T11:07:30.154Z,99006
2018-01-01T11:08:30.152Z,99004
2018-01-01T11:09:30.195Z,99001
2018-01-01T11:10:29.361Z,98995
2018-01-01T11:11:29.218Z,98989
2018-01-01T11:12:29.376Z,98994
2018-01-01T11:13:29.351Z,98987
2018-01-01T11:14:30.477Z,98978
2018-01-01T11:15:30.569Z,98982
2018-01-01T11:16:30.607Z,98981
2018-01-01T11:17:30.656Z,98973
2018-01-01T11:18:29.724Z,98968
2018-01-01T11:19:30.693Z,98963
2018-01-01T11:20:29.874Z,98969
2018-01-01T11:21:29.827Z,98969
2018-01-01T11:22:29.971Z,98963
2018-01-01T11:23:29.890Z,98957
2018-01-01T11:24:30.929Z,98961
2018-01-01T11:25:31.106Z,98959
2018-01-01T11:26:30.056Z,98957
2018-01-01T11:27:30.293Z,98945
2018-01-01T11:28:30.256Z,98949
2018-01-01T11:29:31.302Z,98949
2018-01-01T11:30:30.293Z,98950
2018-01-01T11:31:30.329Z,98952
2018-01-01T11:32:31.463Z,98941
2018-01-01T11:33:30.357Z,98938
2018-01-01T11:34:31.470Z,98940
2018-01-01T11:35:30.394Z,98935
2018-01-01T11:36:30.559Z,98935
2018-01-01T11:37:31.524Z,98933
2018-01-01T11:38:30.533Z,98927
2018-01-01T11:39:30.558Z,98930
2018-01-01T11:40:31.637Z,98927
2018-01-01T11:41:31.607Z,98925
2018-01-01T11:42:30.795Z,98924
2018-01-01T11:43:31.782Z,98922
2018-01-01T11:44:31.906Z,98932
2018-01-01T11:45:30.896Z,98921
2018-01-01T11:46:31.921Z,98926
2018-01-01T11:47:31.042Z,98918
2018-01-01T11:48:32.113Z,98929
2018-01-01T11:49:31.158Z,98921
2018-01-01T11:50:32.212Z,98913
2018-01-01T11:51:31.195Z,98917
2018-01-01T11:52:32.343Z,98911
2018-01-01T11:53:32.349Z,98908
2018-01-01T11:54:32.458Z,98901
2018-01-01T11:55:31.575Z,98910
2018-01-01T11:56:32.576Z,98906
2018-01-01T11:57:31.537Z,98899
2018-01-01T11:58:31.560Z,98895
2018-01-01T11:59:32.672Z,98892
2018-01-01T12:00:31.618Z,98884
2018-01-01T12:01:31.628Z,98887
2018-01-01T12:02:31.652Z,98883
2018-01-01T12:03:32.823Z,98886
2018-01-01T12:04:31.844Z,98876
2018-01-01T12:05:31.886Z,98878
2018-01-01T12:06:32.002Z,98870
2018-01-01T12:07:32.978Z,98867
2018-01-01T12:08:32.095Z,98859
2018-01-01T12:09:32.018Z,98859
2018-01-01T12:10:32.030Z,98857
2018-01-01T12:11:32.221Z,98858
2018-01-01T12:12:32.256Z,98846
2018-01-01T12:13:33.322Z,98850
2018-01-01T12:14:32.406Z,98840
2018-01-01T12:15:32.458Z,98844
2018-01-01T12:16:32.471Z,98848
2018-01-01T12:17:32.646Z,98834
2018-01-01T12:18:32.630Z,98842
2018-01-01T12:19:32.684Z,98836
2018-01-01T12:20:32.883Z,98847
2018-01-01T12:21:32.877Z,98841
2018-01-01T12:22:33.868Z,98839
2018-01-01T12:23:32.974Z,98838
2018-01-01T12:24:33.093Z,98839
2018-01-01T12:25:33.041Z,98835
2018-01-01T12:26:33.185Z,98826
2018-01-01T12:27:33.166Z,98818
2018-01-01T12:28:34.268Z,98824
2018-01-01T12:29:34.354Z,98818
2018-01-01T12:30:33.465Z,98825
2018-01-01T12:31:33.371Z,98826
2018-01-01T12:32:34.513Z,98816
2018-01-01T12:33:33.464Z,98809
2018-01-01T12:34:33.467Z,98816
2018-01-01T12:35:33.604Z,98811
2018-01-01T12:36:34.550Z,98816
2018-01-01T12:37:34.726Z,98809
2018-01-01T12:38:33.673Z,98818
2018-01-01T12:39:33.767Z,98811
2018-01-01T12:40:33.765Z,98804
2018-01-01T12:41:34.836Z,98810
2018-01-01T12:42:34.928Z,98811
2018-01-01T12:43:34.008Z,98807
2018-01-01T12:44:33.980Z,98795
2018-01-01T12:45:35.115Z,98804
2018-01-01T12:46:35.122Z,98799
2018-01-01T12:47:34.127Z,98795
2018-01-01T12:48:34.108Z,98803
2018-01-01T12:49:34.165Z,98794
2018-01-01T12:50:35.274Z,98802
2018-01-01T12:51:35.297Z,98801
2018-01-01T12:52:35.347Z,98804
2018-01-01T12:53:34.364Z,98803